createdAt,value
2023-10-12T00:00:20.366Z,48.52
2023-10-12T00:02:49.107Z,48.77
2023-10-12T00:05:19.667Z,48.79
2023-10-12T00:07:51.153Z,48.99
2023-10-12T00:10:18.131Z,48.98
2023-10-12T00:12:47.166Z,49.24
2023-10-12T00:15:19.439Z,49.28
2023-10-12T00:17:46.228Z,49.29
2023-10-12T00:20:22.517Z,49.30
2023-10-12T00:22:49.493Z,49.41
2023-10-12T00:25:17.712Z,49.12
2023-10-12T00:27:45.068Z,49.65
2023-10-12T00:30:15.810Z,49.24
2023-10-12T00:32:42.697Z,49.41
2023-10-12T00:35:12.110Z,49.21
2023-10-12T00:37:42.180Z,48.90
2023-10-12T00:40:32.166Z,49.00
2023-10-12T00:43:02.321Z,49.36
2023-10-12T00:45:31.179Z,48.60
2023-10-12T00:48:17.225Z,49.59
2023-10-12T00:50:48.763Z,49.36
2023-10-12T00:53:23.663Z,49.39
2023-10-12T00:55:52.120Z,49.64
2023-10-12T00:58:19.210Z,49.49
2023-10-12T01:00:47.218Z,49.80
2023-10-12T01:03:36.286Z,49.57
2023-10-12T01:06:12.058Z,49.90
2023-10-12T01:08:44.492Z,49.33
2023-10-12T01:11:20.647Z,49.19
2023-10-12T01:13:50.407Z,48.97
2023-10-12T01:16:24.670Z,49.16
2023-10-12T01:18:57.775Z,49.44
2023-10-12T01:21:24.657Z,49.54
2023-10-12T01:23:54.273Z,50.00
2023-10-12T01:26:21.312Z,49.85
2023-10-12T01:28:50.798Z,50.00
2023-10-12T01:31:29.027Z,49.93
2023-10-12T01:34:01.120Z,49.44
2023-10-12T01:36:31.647Z,49.68
2023-10-12T01:39:12.066Z,49.52
2023-10-12T01:41:42.041Z,49.52
2023-10-12T01:44:12.940Z,49.27
2023-10-12T01:46:42.738Z,50.07
2023-10-12T01:49:11.105Z,50.31
2023-10-12T01:51:42.689Z,49.77
2023-10-12T01:54:13.354Z,49.90
2023-10-12T01:56:40.256Z,50.09
2023-10-12T01:59:08.559Z,50.47
2023-10-12T02:01:36.030Z,49.86
2023-10-12T02:04:06.984Z,50.47
2023-10-12T02:06:34.441Z,50.03
2023-10-12T02:09:10.263Z,50.72
2023-10-12T02:11:44.913Z,51.23
2023-10-12T02:14:13.994Z,50.69
2023-10-12T02:16:54.130Z,50.67
2023-10-12T02:19:32.566Z,51.12
2023-10-12T02:22:01.825Z,51.55
2023-10-12T02:24:28.732Z,51.40
2023-10-12T02:26:56.009Z,51.82
2023-10-12T02:29:22.679Z,51.62
2023-10-12T02:31:53.389Z,51.51
2023-10-12T02:34:21.664Z,51.54
2023-10-12T02:37:02.770Z,51.32
2023-10-12T02:39:30.732Z,51.42
2023-10-12T02:42:16.709Z,51.70
2023-10-12T02:44:57.104Z,51.51
2023-10-12T02:47:24.937Z,51.70
2023-10-12T02:50:18.321Z,52.38
2023-10-12T02:52:45.312Z,52.02
2023-10-12T02:55:21.098Z,51.70
2023-10-12T02:58:10.538Z,51.39
2023-10-12T03:00:45.144Z,51.86
2023-10-12T03:03:33.396Z,52.26
2023-10-12T03:06:04.032Z,52.06
2023-10-12T03:08:35.108Z,51.88
2023-10-12T03:11:02.165Z,51.83
2023-10-12T03:13:36.078Z,51.96
2023-10-12T03:16:10.328Z,52.12
2023-10-12T03:18:37.304Z,52.45
2023-10-12T03:21:12.685Z,52.50
2023-10-12T03:23:40.752Z,52.83
2023-10-12T03:26:19.171Z,52.50
2023-10-12T03:28:46.717Z,52.70
2023-10-12T03:31:37.783Z,52.88
2023-10-12T03:34:17.601Z,52.79
2023-10-12T03:36:49.471Z,53.21
2023-10-12T03:39:27.604Z,52.66
2023-10-12T03:41:56.627Z,52.24
2023-10-12T03:44:43.306Z,52.42
2023-10-12T03:47:22.929Z,52.76
2023-10-12T03:49:53.786Z,52.43
2023-10-12T03:52:21.130Z,53.09
2023-10-12T03:55:00.367Z,52.32
2023-10-12T03:57:40.407Z,52.42
2023-10-12T04:00:11.498Z,52.54
2023-10-12T04:02:51.889Z,52.60
2023-10-12T04:05:35.697Z,52.34
2023-10-12T04:08:06.724Z,52.46
2023-10-12T04:11:03.501Z,52.99
2023-10-12T04:13:30.575Z,52.94
2023-10-12T04:16:11.702Z,53.31
2023-10-12T04:18:43.844Z,53.34
2023-10-12T04:21:11.579Z,53.84
2023-10-12T04:23:51.137Z,53.72
2023-10-12T04:26:17.809Z,53.88
2023-10-12T04:28:52.959Z,54.04
2023-10-12T04:31:34.396Z,54.12
2023-10-12T04:34:04.447Z,54.34
2023-10-12T04:36:53.864Z,54.05
2023-10-12T04:39:20.415Z,54.37
2023-10-12T04:41:47.040Z,54.45
2023-10-12T04:44:30.003Z,54.55
2023-10-12T04:47:04.634Z,54.89
2023-10-12T04:49:33.428Z,54.31
2023-10-12T04:52:13.023Z,54.37
2023-10-12T04:55:22.108Z,54.90
2023-10-12T04:57:57.401Z,55.01
2023-10-12T05:00:35.946Z,54.81
2023-10-12T05:03:22.663Z,55.13
2023-10-12T05:06:05.615Z,55.03
2023-10-12T05:08:34.364Z,55.54
2023-10-12T05:11:01.349Z,55.52
2023-10-12T05:13:28.443Z,56.51
2023-10-12T05:16:08.121Z,56.04
2023-10-12T05:18:35.487Z,56.38
2023-10-12T05:21:05.658Z,56.67
2023-10-12T05:23:32.373Z,56.46
2023-10-12T05:25:59.075Z,57.29
2023-10-12T05:28:32.176Z,56.68
2023-10-12T05:31:09.439Z,56.67
2023-10-12T05:33:40.052Z,56.84
2023-10-12T05:36:14.848Z,56.43
2023-10-12T05:38:50.485Z,56.49
2023-10-12T05:41:23.639Z,56.55
2023-10-12T05:43:50.464Z,56.52
2023-10-12T05:46:17.745Z,56.31
2023-10-12T05:48:48.091Z,56.02
2023-10-12T05:51:16.496Z,55.99
2023-10-12T05:53:43.266Z,56.15
2023-10-12T05:56:10.033Z,56.38
2023-10-12T05:58:40.306Z,56.38
2023-10-12T06:01:09.758Z,56.35
2023-10-12T06:03:47.404Z,56.52
2023-10-12T06:06:15.773Z,56.36
2023-10-12T06:08:42.457Z,56.29
2023-10-12T06:11:10.517Z,56.07
2023-10-12T06:13:44.938Z,56.15
2023-10-12T06:16:22.705Z,55.97
2023-10-12T06:18:55.033Z,55.65
2023-10-12T06:21:21.721Z,55.51
2023-10-12T06:23:51.168Z,55.62
2023-10-12T06:26:29.635Z,55.84
2023-10-12T06:29:00.247Z,55.62
2023-10-12T06:31:27.622Z,55.68
2023-10-12T06:33:56.663Z,55.64
2023-10-12T06:36:39.005Z,55.31
2023-10-12T06:39:19.521Z,55.82
2023-10-12T06:41:47.505Z,55.18
2023-10-12T06:44:19.525Z,54.76
2023-10-12T06:46:47.417Z,54.35
2023-10-12T06:49:23.695Z,54.54
2023-10-12T06:52:03.106Z,54.09
2023-10-12T06:54:54.722Z,54.31
2023-10-12T06:57:42.166Z,54.17
2023-10-12T07:00:10.117Z,53.87
2023-10-12T07:02:36.768Z,54.87
2023-10-12T07:05:06.126Z,56.39
2023-10-12T07:07:44.816Z,59.67
2023-10-12T07:10:11.815Z,62.03
2023-10-12T07:12:49.405Z,64.45
2023-10-12T07:15:22.636Z,65.17
2023-10-12T07:17:50.497Z,65.51
2023-10-12T07:20:47.313Z,67.19
2023-10-12T07:23:16.920Z,66.54
2023-10-12T07:25:49.996Z,67.54
2023-10-12T07:28:27.119Z,66.67
2023-10-12T07:31:12.482Z,67.43
2023-10-12T07:33:52.297Z,67.47
2023-10-12T07:36:19.373Z,68.18
2023-10-12T07:38:56.197Z,67.14
2023-10-12T07:41:34.708Z,67.50
2023-10-12T07:44:01.426Z,67.94
2023-10-12T07:46:29.002Z,68.94
2023-10-12T07:49:11.840Z,70.33
2023-10-12T07:51:55.754Z,71.50
2023-10-12T07:54:42.730Z,71.56
2023-10-12T07:57:11.212Z,72.65
2023-10-12T07:59:43.934Z,73.77
2023-10-12T08:02:16.739Z,72.56
2023-10-12T08:05:17.108Z,72.08
2023-10-12T08:08:00.247Z,72.18
2023-10-12T08:10:40.495Z,73.30
2023-10-12T08:13:27.188Z,74.52
2023-10-12T08:15:56.572Z,74.00
2023-10-12T08:18:50.066Z,74.99
2023-10-12T08:21:38.962Z,74.43
2023-10-12T08:24:21.714Z,74.04
2023-10-12T08:26:48.851Z,74.84
2023-10-12T08:29:22.995Z,74.03
2023-10-12T08:32:10.272Z,74.88
2023-10-12T08:34:39.962Z,74.32
2023-10-12T08:37:19.411Z,73.65
2023-10-12T08:40:00.533Z,74.55
2023-10-12T08:42:34.800Z,72.98
2023-10-12T08:45:16.392Z,72.52
2023-10-12T08:47:50.602Z,72.18
2023-10-12T08:50:17.977Z,73.32
2023-10-12T08:52:52.297Z,72.60
2023-10-12T08:55:26.169Z,72.83
2023-10-12T08:58:17.862Z,72.13
2023-10-12T09:01:00.639Z,72.25
2023-10-12T09:03:39.353Z,72.24
2023-10-12T09:06:26.046Z,72.42
2023-10-12T09:08:52.673Z,71.71
2023-10-12T09:11:27.197Z,72.11
2023-10-12T09:13:53.852Z,72.37
2023-10-12T09:16:20.664Z,73.24
2023-10-12T09:18:58.509Z,72.40
2023-10-12T09:21:30.297Z,72.71
2023-10-12T09:24:06.748Z,73.59
2023-10-12T09:26:38.601Z,73.95
2023-10-12T09:29:08.361Z,73.97
2023-10-12T09:31:37.307Z,73.95
2023-10-12T09:34:16.972Z,73.96
2023-10-12T09:36:45.630Z,74.60
2023-10-12T09:39:18.159Z,74.55
2023-10-12T09:41:59.106Z,74.95
2023-10-12T09:44:36.837Z,76.00
2023-10-12T09:47:18.017Z,75.19
2023-10-12T09:49:56.985Z,77.71
2023-10-12T09:52:47.875Z,78.18
2023-10-12T09:55:28.429Z,78.78
2023-10-12T09:57:56.436Z,78.93
2023-10-12T10:00:50.086Z,79.32
2023-10-12T10:03:19.195Z,79.41
2023-10-12T10:05:56.011Z,80.47
2023-10-12T10:08:30.372Z,78.39
2023-10-12T10:10:59.141Z,79.18
2023-10-12T10:13:48.644Z,77.37
2023-10-12T10:16:18.754Z,78.42
2023-10-12T10:19:14.790Z,78.86
2023-10-12T10:21:53.645Z,77.58
2023-10-12T10:24:25.495Z,77.63
2023-10-12T10:27:19.610Z,75.33
2023-10-12T10:29:55.050Z,75.22
2023-10-12T10:32:37.981Z,74.30
2023-10-12T10:35:14.121Z,73.49
2023-10-12T10:37:49.023Z,73.37
2023-10-12T10:40:20.061Z,72.42
2023-10-12T10:43:06.162Z,71.44
2023-10-12T10:45:37.411Z,71.81
2023-10-12T10:48:28.887Z,71.87
2023-10-12T10:50:52.419Z,70.34
2023-10-12T10:53:20.340Z,69.73
2023-10-12T10:55:51.903Z,69.24
2023-10-12T10:58:23.426Z,68.81
2023-10-12T11:00:57.706Z,68.17
2023-10-12T11:03:27.244Z,67.57
2023-10-12T11:05:54.583Z,67.73
2023-10-12T11:08:28.259Z,67.35
2023-10-12T11:11:11.109Z,67.86
2023-10-12T11:13:40.738Z,66.67
2023-10-12T11:16:43.499Z,67.73
2023-10-12T11:19:10.526Z,67.27
2023-10-12T11:21:37.641Z,68.27
2023-10-12T11:24:05.396Z,67.44
2023-10-12T11:26:40.890Z,67.80
2023-10-12T11:29:08.186Z,67.78
2023-10-12T11:31:35.225Z,67.54
2023-10-12T11:34:11.093Z,68.13
2023-10-12T11:36:38.022Z,68.63
2023-10-12T11:39:17.549Z,68.69
2023-10-12T11:42:08.153Z,68.60
2023-10-12T11:44:38.280Z,68.66
2023-10-12T11:47:08.748Z,69.01
2023-10-12T11:49:48.664Z,69.40
2023-10-12T11:52:19.076Z,69.44
2023-10-12T11:54:46.285Z,69.63
2023-10-12T11:57:15.443Z,69.44
2023-10-12T11:59:43.714Z,68.80
2023-10-12T12:02:17.685Z,69.60
2023-10-12T12:04:57.585Z,69.79
2023-10-12T12:07:32.533Z,69.35
2023-10-12T12:10:03.035Z,70.21
2023-10-12T12:12:30.157Z,70.16
2023-10-12T12:14:56.952Z,69.96
2023-10-12T12:17:28.492Z,69.76
2023-10-12T12:19:55.264Z,69.92
2023-10-12T12:22:24.745Z,69.93
2023-10-12T12:24:51.457Z,69.69
2023-10-12T12:27:38.950Z,70.24
2023-10-12T12:32:41.463Z,70.42
2023-10-12T12:35:08.471Z,70.22
2023-10-12T12:37:39.423Z,70.30
2023-10-12T12:40:28.810Z,70.36
2023-10-12T12:42:55.920Z,70.09
2023-10-12T12:45:22.899Z,70.40
2023-10-12T12:47:49.869Z,70.05
2023-10-12T12:50:16.623Z,70.06
2023-10-12T12:52:47.577Z,70.33
2023-10-12T12:55:19.451Z,70.04
2023-10-12T12:57:47.294Z,70.10
2023-10-12T13:00:21.114Z,70.29
2023-10-12T13:02:48.612Z,70.10
2023-10-12T13:05:16.078Z,70.32
2023-10-12T13:07:44.696Z,70.91
2023-10-12T13:10:12.884Z,70.61
2023-10-12T13:12:42.729Z,70.90
2023-10-12T13:15:11.088Z,70.85
2023-10-12T13:17:38.770Z,70.47
2023-10-12T13:20:10.159Z,70.88
2023-10-12T13:22:37.244Z,70.48
2023-10-12T13:25:06.027Z,70.49
2023-10-12T13:27:33.481Z,71.42
2023-10-12T13:30:10.629Z,72.53
2023-10-12T13:32:37.734Z,72.23
2023-10-12T13:35:19.307Z,72.27
2023-10-12T13:37:48.896Z,72.13
2023-10-12T13:40:18.404Z,71.95
2023-10-12T13:42:45.960Z,71.92
2023-10-12T13:45:19.709Z,71.37
2023-10-12T13:47:49.495Z,71.02
2023-10-12T13:50:16.440Z,71.08
2023-10-12T13:52:43.429Z,70.96
2023-10-12T13:55:17.632Z,70.71
2023-10-12T13:57:56.567Z,70.43
2023-10-12T14:00:27.818Z,69.71
2023-10-12T14:02:58.116Z,69.56
2023-10-12T14:05:31.222Z,69.38
2023-10-12T14:07:59.464Z,69.26
2023-10-12T14:10:30.933Z,68.50
2023-10-12T14:12:58.009Z,68.79
2023-10-12T14:15:28.298Z,68.39
2023-10-12T14:18:00.179Z,68.12
2023-10-12T14:20:30.074Z,68.37
2023-10-12T14:22:58.662Z,68.27
2023-10-12T14:25:29.984Z,68.54
2023-10-12T14:28:01.027Z,68.28
2023-10-12T14:30:31.060Z,67.52
2023-10-12T14:32:59.681Z,66.97
2023-10-12T14:35:26.359Z,67.25
2023-10-12T14:37:56.465Z,67.54
2023-10-12T14:40:31.137Z,67.40
2023-10-12T14:42:59.511Z,67.46
2023-10-12T14:45:26.850Z,67.50
2023-10-12T14:47:54.060Z,67.64
2023-10-12T14:50:21.789Z,67.36
2023-10-12T14:52:53.293Z,67.67
2023-10-12T14:55:21.528Z,67.78
2023-10-12T14:57:51.673Z,67.87
2023-10-12T15:00:23.749Z,67.52
2023-10-12T15:02:51.933Z,67.75
2023-10-12T15:05:20.028Z,67.47
2023-10-12T15:07:49.743Z,67.76
2023-10-12T15:12:50.055Z,67.73
2023-10-12T15:15:20.120Z,68.23
2023-10-12T15:17:47.286Z,67.70
2023-10-12T15:20:17.143Z,67.35
2023-10-12T15:22:47.482Z,67.65
2023-10-12T15:25:17.569Z,67.54
2023-10-12T15:27:45.523Z,67.35
2023-10-12T15:30:12.813Z,67.39
2023-10-12T15:32:42.499Z,67.54
2023-10-12T15:35:13.286Z,67.72
2023-10-12T15:37:49.473Z,67.76
2023-10-12T15:40:21.841Z,68.04
2023-10-12T15:42:52.149Z,68.22
2023-10-12T15:45:18.965Z,68.13
2023-10-12T15:47:49.491Z,68.06
2023-10-12T15:50:17.302Z,68.37
2023-10-12T15:52:50.854Z,68.31
2023-10-12T15:55:24.859Z,68.22
2023-10-12T15:57:53.883Z,68.53
2023-10-12T16:00:25.918Z,68.66
2023-10-12T16:03:09.824Z,68.66
2023-10-12T16:05:37.841Z,68.67
2023-10-12T16:08:16.515Z,68.80
2023-10-12T16:10:50.336Z,68.99
2023-10-12T16:13:17.604Z,69.34
2023-10-12T16:15:44.567Z,69.13
2023-10-12T16:18:13.107Z,69.28
2023-10-12T16:20:40.641Z,69.59
2023-10-12T16:23:07.876Z,69.58
2023-10-12T16:25:34.975Z,69.56
2023-10-12T16:28:02.234Z,69.55
2023-10-12T16:30:35.755Z,69.55
2023-10-12T16:33:03.370Z,69.35
2023-10-12T16:35:30.279Z,69.52
2023-10-12T16:38:03.008Z,69.55
2023-10-12T16:40:30.085Z,69.80
2023-10-12T16:42:58.620Z,69.42
2023-10-12T16:45:28.763Z,69.90
2023-10-12T16:47:56.189Z,70.05
2023-10-12T16:50:24.528Z,69.94
2023-10-12T16:52:51.979Z,70.59
2023-10-12T16:55:19.686Z,70.64
2023-10-12T16:57:47.044Z,71.15
2023-10-12T17:00:18.579Z,71.18
2023-10-12T17:02:46.963Z,71.54
2023-10-12T17:05:15.239Z,71.75
2023-10-12T17:07:45.955Z,71.91
2023-10-12T17:10:19.227Z,72.52
2023-10-12T17:12:46.104Z,71.66
2023-10-12T17:15:17.367Z,72.00
2023-10-12T17:17:44.023Z,71.97
2023-10-12T17:20:13.538Z,71.87
2023-10-12T17:22:40.516Z,71.20
2023-10-12T17:25:10.192Z,71.91
2023-10-12T17:27:37.556Z,72.03
2023-10-12T17:30:07.769Z,71.78
2023-10-12T17:32:34.936Z,71.31
2023-10-12T17:35:01.994Z,71.20
2023-10-12T17:37:28.892Z,71.28
2023-10-12T17:40:14.318Z,71.13
2023-10-12T17:42:49.022Z,70.68
2023-10-12T17:45:16.469Z,70.62
2023-10-12T17:47:46.128Z,70.53
2023-10-12T17:50:16.041Z,70.37
2023-10-12T17:52:44.161Z,70.03
2023-10-12T17:55:16.052Z,70.23
2023-10-12T17:57:44.286Z,69.47
2023-10-12T18:00:11.812Z,70.35
2023-10-12T18:02:43.135Z,70.12
2023-10-12T18:05:12.920Z,70.10
2023-10-12T18:07:41.809Z,70.01
2023-10-12T18:10:09.146Z,70.23
2023-10-12T18:12:37.347Z,69.36
2023-10-12T18:15:04.634Z,69.99
2023-10-12T18:17:37.097Z,69.89
2023-10-12T18:20:06.729Z,69.90
2023-10-12T18:22:36.702Z,69.89
2023-10-12T18:25:06.160Z,69.88
2023-10-12T18:27:32.852Z,69.68
2023-10-12T18:29:59.581Z,70.03
2023-10-12T18:32:27.178Z,70.02
2023-10-12T18:34:54.817Z,69.74
2023-10-12T18:37:21.606Z,69.53
2023-10-12T18:39:48.678Z,69.35
2023-10-12T18:42:16.318Z,69.52
2023-10-12T18:44:43.472Z,69.58
2023-10-12T18:47:10.107Z,69.35
2023-10-12T18:49:37.442Z,69.18
2023-10-12T18:52:04.602Z,69.45
2023-10-12T18:54:31.684Z,69.24
2023-10-12T18:56:58.384Z,69.42
2023-10-12T18:59:26.225Z,69.42
2023-10-12T19:01:53.990Z,69.27
2023-10-12T19:04:20.794Z,69.57
2023-10-12T19:06:49.593Z,69.56
2023-10-12T19:09:17.759Z,69.34
2023-10-12T19:11:47.063Z,69.73
2023-10-12T19:14:15.781Z,69.76
2023-10-12T19:16:42.921Z,69.96
2023-10-12T19:19:09.735Z,70.14
2023-10-12T19:21:38.860Z,70.05
2023-10-12T19:24:15.299Z,70.39
2023-10-12T19:26:42.728Z,70.45
2023-10-12T19:29:10.073Z,70.38
2023-10-12T19:31:42.956Z,70.32
2023-10-12T19:34:10.370Z,71.23
2023-10-12T19:36:37.357Z,71.19
2023-10-12T19:39:08.979Z,71.08
2023-10-12T19:41:36.938Z,71.88
2023-10-12T19:44:09.233Z,72.12
2023-10-12T19:46:36.703Z,72.52
2023-10-12T19:49:03.601Z,72.45
2023-10-12T19:51:32.961Z,72.33
2023-10-12T19:53:59.952Z,72.78
2023-10-12T19:56:26.817Z,72.56
2023-10-12T19:58:55.631Z,72.49
2023-10-12T20:01:22.979Z,72.79
2023-10-12T20:03:50.996Z,72.41
2023-10-12T20:06:19.081Z,72.70
2023-10-12T20:08:49.812Z,72.77
2023-10-12T20:11:19.774Z,73.08
2023-10-12T20:13:48.989Z,72.83
2023-10-12T20:16:32.129Z,73.28
2023-10-12T20:18:59.165Z,73.19
2023-10-12T20:21:27.288Z,73.65
2023-10-12T20:23:54.998Z,73.28
2023-10-12T20:26:24.655Z,73.01
2023-10-12T20:28:51.411Z,73.32
2023-10-12T20:31:18.307Z,73.28
2023-10-12T20:33:45.250Z,73.22
2023-10-12T20:36:12.284Z,73.02
2023-10-12T20:38:40.590Z,73.43
2023-10-12T20:41:07.806Z,73.20
2023-10-12T20:43:35.460Z,73.08
2023-10-12T20:46:11.637Z,73.37
2023-10-12T20:48:39.157Z,73.36
2023-10-12T20:51:06.556Z,73.73
2023-10-12T20:53:37.630Z,73.60
2023-10-12T20:56:11.323Z,73.84
2023-10-12T20:58:45.816Z,73.57
2023-10-12T21:01:28.161Z,74.16
2023-10-12T21:03:58.894Z,74.50
2023-10-12T21:06:28.264Z,75.26
2023-10-12T21:09:06.913Z,75.21
2023-10-12T21:11:33.760Z,75.40
2023-10-12T21:14:05.234Z,76.27
2023-10-12T21:16:35.789Z,75.53
2023-10-12T21:19:15.331Z,76.24
2023-10-12T21:21:42.515Z,76.79
2023-10-12T21:24:19.181Z,76.34
2023-10-12T21:26:47.320Z,75.98
2023-10-12T21:29:23.137Z,76.19
2023-10-12T21:32:02.629Z,77.22
2023-10-12T21:34:32.570Z,76.66
2023-10-12T21:37:08.386Z,76.94
2023-10-12T21:39:42.723Z,76.88
2023-10-12T21:42:11.391Z,77.44
2023-10-12T21:44:40.199Z,78.14
2023-10-12T21:47:10.634Z,77.78
2023-10-12T21:49:41.394Z,78.34
2023-10-12T21:52:08.365Z,78.02
2023-10-12T21:54:35.881Z,77.66
2023-10-12T21:57:03.533Z,77.58
2023-10-12T21:59:30.456Z,77.38
2023-10-12T22:02:15.589Z,76.75
2023-10-12T22:04:47.937Z,77.86
2023-10-12T22:07:18.048Z,78.16
2023-10-12T22:09:59.482Z,77.77
2023-10-12T22:12:28.820Z,77.79
2023-10-12T22:15:02.726Z,77.58
2023-10-12T22:17:29.899Z,78.01
2023-10-12T22:19:57.751Z,77.65
2023-10-12T22:22:30.506Z,77.42
2023-10-12T22:25:00.823Z,77.32
2023-10-12T22:27:33.236Z,77.79
2023-10-12T22:30:01.188Z,77.73
2023-10-12T22:32:28.022Z,77.82
2023-10-12T22:34:54.792Z,78.35
2023-10-12T22:37:22.778Z,78.02
2023-10-12T22:39:52.889Z,78.42
2023-10-12T22:42:28.901Z,78.28
2023-10-12T22:44:56.146Z,78.38
2023-10-12T22:47:23.423Z,77.86
2023-10-12T22:49:50.108Z,78.39
2023-10-12T22:52:16.728Z,78.09
2023-10-12T22:54:44.063Z,78.51
2023-10-12T22:57:10.741Z,78.34
2023-10-12T22:59:38.187Z,78.35
2023-10-12T23:02:05.231Z,78.75
2023-10-12T23:04:32.592Z,78.06
2023-10-12T23:07:00.198Z,78.37
2023-10-12T23:09:28.892Z,78.15
2023-10-12T23:11:56.306Z,78.52
2023-10-12T23:14:28.394Z,78.46
2023-10-12T23:16:59.005Z,78.10
2023-10-12T23:19:44.729Z,78.68
2023-10-12T23:22:41.306Z,78.27
2023-10-12T23:25:08.201Z,78.06
2023-10-12T23:27:34.909Z,78.26
2023-10-12T23:30:12.071Z,78.07
2023-10-12T23:32:39.308Z,77.95
2023-10-12T23:35:12.293Z,78.20
2023-10-12T23:37:59.019Z,78.26
2023-10-12T23:40:29.047Z,78.26
2023-10-12T23:42:55.763Z,77.79
2023-10-12T23:45:37.424Z,77.98
2023-10-12T23:48:11.088Z,78.42
2023-10-12T23:50:44.541Z,78.10
2023-10-12T23:53:19.075Z,77.91
2023-10-12T23:55:47.524Z,78.23
2023-10-12T23:58:15.693Z,78.40
